Albertville, Minnesota
Current Conditions -  °F | °C
As of 8:35 AM on Monday 26 Jan 2015 (Local Time) from KCFE Reporting Station
Overcast Overcast  
Wind Chill: 32°   Ceiling: 1800
Heat Index: 32°   Visibility: 10mi
Dew Point: 30°   Wind: 0mph
Humidity: 92%   Direction: NA
Pressure: 29.7"   Gusts: NA
Location:  45.24°N, 93.65°W
Report Text: KCFE 261435Z AUTO 00000KT 10SM OVC018 00/M01 A2970 RMK AO2 T00001012
Loading
Personal Weather Stations






























Interactive Weather Map New forecast layout! Learn more

10-Day Weather Forecast

Advertisements
Track Severe Weather on mobile